»·PEaware :: N530RC L52-L88

N530RC :: L52-L88

FLIGHT INFORMATION

Flight Status: Arrived
Operator: Privately registered:
United States
More flights under this callsign
Pilot: Louis L. (20588)
Aircraft: CESSNA 152 AEROBAT
(C152)
More flights by this aircraft type
Origin: L52 Oceano Co
United States
Destination: L88 New Cuyama
United States
More flights between these airports :: More routes between these airports
Route:
File this flight plan on PilotEdge
Remarks:
Altitude:
(Current/Filed)
4,500ft
Speed:
(Current/Filed)
90kts
Departed: 08-Oct-18 11:10 AM
Arrived: 08-Oct-18 11:56 AM
Distance/Time
Traveled:
47nm/0:45
Distance/Time
To Go:
Arrived

Flight Plot

Page will automatically refresh every two minutes.


Map Options




Map Legend


Flown Route
Filed Route
Departure Airport
Arrival Airport
Navaid (VOR, NDB)
Fix

Horizontal Profiles

Position Reports

Time Latitude Longitude Heading Altitude Ground
Speed
08-Oct-18 11:07 35.103089 -120.624063 212 14ft 0kts
08-Oct-18 11:08 35.103089 -120.624063 212 14ft 0kts
08-Oct-18 11:09 35.103089 -120.624063 212 14ft 0kts
08-Oct-18 11:10 35.103075 -120.624083 227 14ft 0kts
08-Oct-18 11:11 35.103506 -120.625071 261 13ft 0kts
08-Oct-18 11:12 35.098507 -120.617638 131 331ft 59kts
08-Oct-18 11:13 35.089123 -120.606872 129 962ft 70kts
08-Oct-18 11:14 35.084165 -120.592302 98 1686ft 61kts
08-Oct-18 11:15 35.081360 -120.577727 94 2345ft 59kts
08-Oct-18 11:16 35.080416 -120.561491 85 2937ft 62kts
08-Oct-18 11:17 35.080531 -120.545527 95 3439ft 77kts
08-Oct-18 11:18 35.078289 -120.527617 99 4121ft 63kts
08-Oct-18 11:19 35.072433 -120.513411 119 4676ft 64kts
08-Oct-18 11:20 35.067825 -120.502372 115 5133ft 61kts
08-Oct-18 11:21 35.064788 -120.485387 75 5390ft 68kts
08-Oct-18 11:22 35.066779 -120.468570 104 5448ft 68kts
08-Oct-18 11:23 35.063205 -120.454049 94 5520ft 65kts
08-Oct-18 11:24 35.063117 -120.431618 94 5592ft 82kts
08-Oct-18 11:25 35.059252 -120.417304 134 5825ft 85kts
08-Oct-18 11:26 35.040226 -120.398058 143 5803ft 120kts
08-Oct-18 11:27 35.026623 -120.384935 136 6295ft 92kts
08-Oct-18 11:28 35.013743 -120.370106 125 6859ft 84kts
08-Oct-18 11:29 35.002299 -120.354117 105 7299ft 66kts
08-Oct-18 11:30 34.997455 -120.339770 105 7467ft 90kts
08-Oct-18 11:31 34.992154 -120.317844 102 7893ft 90kts
08-Oct-18 11:32 34.989580 -120.298100 98 8482ft 74kts
08-Oct-18 11:33 34.985602 -120.280980 98 8958ft 73kts
08-Oct-18 11:34 34.982720 -120.260348 88 9328ft 86kts
08-Oct-18 11:35 34.982097 -120.236783 91 9651ft 100kts
08-Oct-18 11:36 34.979623 -120.210344 81 9864ft 104kts
08-Oct-18 11:37 34.980592 -120.185040 87 9937ft 101kts
08-Oct-18 11:38 34.978849 -120.160142 87 10044ft 100kts
08-Oct-18 11:39 34.977206 -120.134091 85 10354ft 104kts
08-Oct-18 11:40 34.978681 -120.106007 77 10344ft 120kts
08-Oct-18 11:41 34.979952 -120.076208 86 10353ft 121kts
08-Oct-18 11:42 34.978429 -120.046062 85 10419ft 118kts
08-Oct-18 11:43 34.978150 -120.015508 92 10226ft 131kts
08-Oct-18 11:44 34.977346 -119.981963 82 9571ft 141kts
08-Oct-18 11:45 34.975650 -119.947094 96 9084ft 134kts
08-Oct-18 11:46 34.970598 -119.913285 92 8609ft 136kts
08-Oct-18 11:47 34.966758 -119.878864 94 8186ft 135kts
08-Oct-18 11:48 34.963113 -119.845405 97 7877ft 129kts
08-Oct-18 11:49 34.957586 -119.812628 102 7492ft 134kts
08-Oct-18 11:50 34.951176 -119.780238 98 7309ft 129kts
08-Oct-18 11:51 34.946238 -119.747818 113 7112ft 126kts
08-Oct-18 11:52 34.937452 -119.718681 106 6323ft 129kts
08-Oct-18 11:53 34.945493 -119.715494 234 4880ft 125kts
08-Oct-18 11:54 34.944529 -119.709807 299 3966ft 101kts
08-Oct-18 11:55 34.935838 -119.702430 85 3185ft 110kts
08-Oct-18 11:56 34.929913 -119.679606 121 2738ft 80kts
08-Oct-18 11:57 34.937258 -119.678904 293 2378ft 62kts
08-Oct-18 11:58 34.941617 -119.689697 295 2159ft 37kts

Navigation Log

Ident Type
Flight plan parsing failed, navigation log unavailable